Ust' Kalmanka, Russia
Current Conditions -  °F | °C
As of 12:30 PM on Thursday 27 Nov 2014 (Local Time) from UNBB Reporting Station
Moderate Snow Moderate Snow  
Wind Chill: -20°   Ceiling: 500
Heat Index: -10°   Visibility: 1.2mi
Dew Point: -12°   Wind: 20mph
Humidity: 86%   Direction: 230°SW
Pressure: 29.56"   Gusts: NA
Location:  52.12°N, 83.32°E
Report Text: UNBB 270530Z 23009MPS 2000 SN BLSN OVC005 M10/M12 Q1001 TEMPO0500 +SN BLSN BKN002 RMK QBB150 QFE729/0972 24401545
Loading
Personal Weather Stations






























Interactive Weather Map New forecast layout! Learn more

10-Day Weather Forecast

Advertisements
Track Severe Weather on mobile